Time;durP1;ratioP1;P1;durP2;ratioP2;P2;SDS_P1;SDS_P2;PMS_P1;PMS_P2;Temp;Humidity;BMP_temperature;BMP_pressure;BME280_temperature;BME280_humidity;BME280_pressure;Samples;Min_cycle;Max_cycle;Signal;HPM_P1;HPM_P2
2021/04/14 00:01:52;;;;;;;20.67;11.85;;;;;;;-1.10;88.07;97785.69;5025731;28;20041;-61
2021/04/14 00:04:17;;;;;;;18.85;11.35;;;;;;;-1.27;87.87;97783.22;5020320;28;20051;-62
2021/04/14 00:06:43;;;;;;;19.02;11.27;;;;;;;-1.30;88.24;97771.09;5025124;28;20140;-63
2021/04/14 00:09:09;;;;;;;18.35;10.45;;;;;;;-1.20;88.44;97773.03;5019893;28;20124;-62
2021/04/14 00:11:35;;;;;;;18.98;10.85;;;;;;;-1.21;88.09;97766.00;5034607;28;20077;-64
2021/04/14 00:14:01;;;;;;;18.42;11.27;;;;;;;-1.17;87.79;97767.94;5044689;28;20128;-63
2021/04/14 00:16:27;;;;;;;18.02;10.95;;;;;;;-1.25;87.63;97764.94;5039483;28;20144;-62
2021/04/14 00:18:53;;;;;;;22.38;12.55;;;;;;;-1.27;87.95;97762.50;5044658;28;20661;-59
2021/04/14 00:21:21;;;;;;;24.25;12.40;;;;;;;-1.35;87.70;97753.09;5039682;28;20068;-59
2021/04/14 00:23:47;;;;;;;13.93;7.80;;;;;;;-1.38;87.95;97755.47;5044628;28;20061;-62
2021/04/14 00:26:14;;;;;;;23.15;12.82;;;;;;;-1.29;88.50;97753.09;5038429;28;20322;-59
2021/04/14 00:28:41;;;;;;;20.02;11.75;;;;;;;-1.22;88.51;97748.28;5025802;28;20398;-63
2021/04/14 00:31:06;;;;;;;20.92;11.45;;;;;;;-1.24;88.52;97753.94;5040042;28;20448;-62
2021/04/14 00:33:32;;;;;;;18.60;11.27;;;;;;;-1.41;88.30;97761.38;5042452;28;20041;-61
2021/04/14 00:35:58;;;;;;;18.63;10.68;;;;;;;-1.49;88.14;97756.53;5044214;28;20094;-60
2021/04/14 00:38:24;;;;;;;23.00;11.40;;;;;;;-1.57;88.64;97755.97;5038241;28;20053;-61
2021/04/14 00:41:02;;;;;;;20.50;11.05;;;;;;;-1.83;88.11;97757.69;5044425;28;20052;-61
2021/04/14 00:43:30;;;;;;;20.42;10.25;;;;;;;-1.97;88.31;97749.28;5040144;28;20144;-61
2021/04/14 00:45:57;;;;;;;22.45;11.40;;;;;;;-2.04;88.90;97742.53;5044317;28;20147;-63
2021/04/14 00:48:23;;;;;;;25.98;12.95;;;;;;;-2.02;89.52;97751.13;5037492;28;20077;-59
2021/04/14 00:50:49;;;;;;;21.42;12.70;;;;;;;-2.07;89.99;97743.88;5025381;28;20388;-63
2021/04/14 00:53:14;;;;;;;23.05;12.57;;;;;;;-1.88;90.46;97746.13;5035753;28;20132;-64
2021/04/14 00:55:41;;;;;;;24.13;12.88;;;;;;;-1.73;90.66;97749.69;5032262;28;20045;-62
2021/04/14 00:58:09;;;;;;;23.25;12.40;;;;;;;-1.69;90.59;97743.78;5020799;28;20404;-62
2021/04/14 01:00:41;;;;;;;22.83;11.57;;;;;;;-1.67;90.60;97741.66;5044104;28;20106;-60
2021/04/14 01:03:13;;;;;;;23.83;12.88;;;;;;;-1.74;90.36;97739.22;5039608;28;20033;-61
2021/04/14 01:05:38;;;;;;;19.30;11.32;;;;;;;-1.68;90.37;97732.78;5044426;28;20041;-62
2021/04/14 01:08:05;;;;;;;19.05;11.27;;;;;;;-1.76;89.94;97738.66;5040371;28;20044;-64
2021/04/14 01:10:31;;;;;;;23.25;11.32;;;;;;;-1.97;89.88;97730.47;5042370;28;20460;-59
2021/04/14 01:12:57;;;;;;;24.13;13.13;;;;;;;-2.06;89.81;97734.72;5024266;28;20108;-63
2021/04/14 01:15:28;;;;;;;24.45;13.00;;;;;;;-2.14;90.24;97735.22;5019192;28;20053;-59
2021/04/14 01:17:54;;;;;;;22.17;13.07;;;;;;;-2.40;90.74;97734.25;5028258;28;20075;-62
2021/04/14 01:20:20;;;;;;;24.55;12.98;;;;;;;-2.63;92.80;97730.03;5026649;28;20081;-61
2021/04/14 01:22:46;;;;;;;24.67;13.77;;;;;;;-2.88;93.80;97726.09;5033867;28;20045;-62
2021/04/14 01:25:17;;;;;;;27.42;14.48;;;;;;;-2.92;94.34;97723.09;5030083;28;20083;-61
2021/04/14 01:27:42;;;;;;;32.13;15.13;;;;;;;-2.92;94.75;97719.59;5035285;28;20107;-61
2021/04/14 01:30:15;;;;;;;30.45;15.43;;;;;;;-2.78;94.90;97722.69;5029892;28;20040;-63
2021/04/14 01:32:41;;;;;;;29.27;15.50;;;;;;;-2.47;94.81;97722.91;5044140;28;20133;-63
2021/04/14 01:35:08;;;;;;;31.35;14.55;;;;;;;-2.40;94.72;97724.31;5039820;28;20053;-63
2021/04/14 01:37:34;;;;;;;30.35;15.32;;;;;;;-2.59;94.26;97718.53;5039305;28;20051;-62
2021/04/14 01:39:59;;;;;;;32.08;15.32;;;;;;;-2.72;94.36;97714.44;5043272;28;20040;-64
2021/04/14 01:42:24;;;;;;;31.20;15.13;;;;;;;-2.70;94.19;97714.16;5031689;28;20049;-62
2021/04/14 01:44:50;;;;;;;31.50;14.80;;;;;;;-2.41;94.54;97719.19;5041490;28;20567;-62
2021/04/14 01:47:15;;;;;;;26.83;14.05;;;;;;;-2.36;94.52;97712.00;5032003;28;20030;-62
2021/04/14 01:49:40;;;;;;;31.13;15.43;;;;;;;-2.27;94.17;97709.63;5063376;28;20052;-61
2021/04/14 01:52:06;;;;;;;32.17;16.92;;;;;;;-2.17;93.69;97712.38;5034532;28;20037;-63
2021/04/14 01:54:32;;;;;;;28.17;16.63;;;;;;;-2.08;92.78;97709.22;5030321;28;20041;-61
2021/04/14 01:56:57;;;;;;;40.08;18.92;;;;;;;-2.13;92.35;97705.44;5034362;28;20044;-60
2021/04/14 01:59:22;;;;;;;44.28;22.00;;;;;;;-2.17;91.94;97704.34;5030541;28;20048;-61
2021/04/14 02:01:48;;;;;;;46.97;24.92;;;;;;;-2.21;92.19;97702.44;5033742;28;20055;-62
2021/04/14 02:04:13;;;;;;;49.65;26.25;;;;;;;-2.29;91.96;97703.72;5031310;28;20048;-60
2021/04/14 02:06:39;;;;;;;47.17;25.35;;;;;;;-2.28;91.88;97699.19;5030864;28;20045;-59
2021/04/14 02:09:05;;;;;;;49.10;24.80;;;;;;;-2.24;91.71;97698.38;5037226;28;20042;-63
2021/04/14 02:11:30;;;;;;;46.22;25.73;;;;;;;-2.20;91.23;97691.44;5035769;28;20049;-63
2021/04/14 02:13:55;;;;;;;45.92;24.25;;;;;;;-2.11;90.90;97694.44;5028321;28;20040;-60
2021/04/14 02:16:22;;;;;;;46.75;23.75;;;;;;;-2.03;90.96;97693.16;5024505;28;21035;-60
2021/04/14 02:18:52;;;;;;;42.00;22.67;;;;;;;-1.99;90.57;97688.88;5035243;28;20046;-62
2021/04/14 02:21:22;;;;;;;42.15;22.55;;;;;;;-2.02;90.39;97689.38;5028284;28;20429;-63
2021/04/14 02:23:49;;;;;;;37.63;21.35;;;;;;;-2.19;90.20;97687.69;5039696;28;20067;-61
2021/04/14 02:26:17;;;;;;;36.22;20.17;;;;;;;-2.44;89.73;97691.00;5029234;28;20570;-61
2021/04/14 02:28:45;;;;;;;38.17;20.75;;;;;;;-2.78;89.78;97685.94;5032830;28;20498;-61
2021/04/14 02:31:17;;;;;;;43.30;22.70;;;;;;;-3.00;90.65;97686.03;5019453;28;20045;-62
2021/04/14 02:33:42;;;;;;;45.35;23.45;;;;;;;-3.14;91.71;97685.63;5027108;28;20124;-60
2021/04/14 02:36:09;;;;;;;42.00;23.90;;;;;;;-3.04;92.80;97686.78;5025900;28;20171;-59
2021/04/14 02:38:35;;;;;;;51.70;25.58;;;;;;;-2.95;92.92;97686.06;5040948;28;20126;-60
2021/04/14 02:41:03;;;;;;;53.65;24.30;;;;;;;-2.85;92.87;97681.84;5034037;28;20481;-60
2021/04/14 02:43:28;;;;;;;43.80;25.20;;;;;;;-2.95;93.26;97678.03;5038869;28;20049;-61
2021/04/14 02:45:54;;;;;;;43.15;22.77;;;;;;;-2.90;93.13;97679.94;5037758;28;20037;-61
2021/04/14 02:48:19;;;;;;;46.88;25.38;;;;;;;-3.02;92.50;97680.13;5034821;28;20505;-59
2021/04/14 02:50:45;;;;;;;46.95;24.50;;;;;;;-3.12;92.37;97670.09;5032846;28;20083;-63
2021/04/14 02:53:11;;;;;;;48.60;23.98;;;;;;;-3.05;93.36;97675.25;5035837;28;20352;-60
2021/04/14 02:55:37;;;;;;;42.35;22.45;;;;;;;-2.96;92.61;97667.56;5040915;28;20048;-59
2021/04/14 02:58:03;;;;;;;42.28;20.77;;;;;;;-3.01;92.83;97672.88;5031595;28;20048;-64
2021/04/14 03:00:30;;;;;;;41.40;20.77;;;;;;;-3.01;93.43;97664.81;5038488;28;20075;-60
2021/04/14 03:02:56;;;;;;;34.53;18.95;;;;;;;-3.26;93.16;97666.22;5038259;28;20383;-61
2021/04/14 03:05:27;;;;;;;37.15;20.35;;;;;;;-3.36;93.01;97666.94;5029510;28;20064;-60
2021/04/14 03:07:53;;;;;;;40.50;19.08;;;;;;;-3.32;93.07;97664.56;5055613;28;20103;-61
2021/04/14 03:10:19;;;;;;;41.58;19.20;;;;;;;-3.23;92.92;97662.22;5041608;28;20036;-59
2021/04/14 03:12:45;;;;;;;34.10;17.77;;;;;;;-3.29;93.04;97662.19;5024852;28;20100;-61
2021/04/14 03:15:12;;;;;;;33.08;17.23;;;;;;;-3.30;92.92;97663.22;5028004;28;20399;-61
2021/04/14 03:17:38;;;;;;;31.95;17.55;;;;;;;-3.50;92.29;97652.31;5033568;28;20049;-66
2021/04/14 03:20:05;;;;;;;34.13;18.02;;;;;;;-3.65;92.91;97653.78;5039283;28;20127;-65
2021/04/14 03:22:31;;;;;;;37.90;17.80;;;;;;;-3.78;92.69;97664.88;5042525;28;20040;-60
2021/04/14 03:24:57;;;;;;;33.53;16.63;;;;;;;-3.71;92.93;97662.81;5042093;28;20087;-60
2021/04/14 03:27:22;;;;;;;36.35;17.35;;;;;;;-3.51;93.16;97658.72;5035621;28;20057;-61
2021/04/14 03:29:48;;;;;;;30.98;17.55;;;;;;;-3.59;92.96;97661.88;5025156;28;20120;-61
2021/04/14 03:32:13;;;;;;;29.65;15.73;;;;;;;-3.50;93.07;97663.84;5036364;28;20045;-62
2021/04/14 03:34:38;;;;;;;30.40;15.93;;;;;;;-3.53;92.81;97659.00;5029458;28;20056;-64
2021/04/14 03:37:04;;;;;;;30.92;15.05;;;;;;;-3.62;92.16;97652.44;5035549;28;20036;-66
2021/04/14 03:39:30;;;;;;;44.08;18.63;;;;;;;-3.62;92.54;97654.31;5030681;28;20124;-60
2021/04/14 03:41:55;;;;;;;34.45;17.00;;;;;;;-3.75;92.39;97656.34;5025962;28;20195;-59
2021/04/14 03:44:21;;;;;;;42.85;18.80;;;;;;;-3.84;93.53;97653.28;5029815;28;20508;-64
2021/04/14 03:46:46;;;;;;;36.58;17.98;;;;;;;-3.94;93.72;97652.38;5032418;28;20041;-63
2021/04/14 03:49:12;;;;;;;39.28;19.42;;;;;;;-4.02;94.90;97658.97;5022772;28;20042;-59
2021/04/14 03:51:37;;;;;;;36.65;19.42;;;;;;;-4.13;94.67;97654.53;5036551;28;20043;-60
2021/04/14 03:54:03;;;;;;;40.15;20.40;;;;;;;-4.20;94.18;97654.72;5040342;28;20041;-64
2021/04/14 03:56:29;;;;;;;39.28;19.15;;;;;;;-4.25;94.48;97647.44;5049432;23;20063;-59
2021/04/14 03:58:55;;;;;;;42.15;19.48;;;;;;;-4.23;94.69;97648.00;5028665;28;20136;-59
2021/04/14 04:01:28;;;;;;;39.58;19.52;;;;;;;-4.15;94.75;97651.31;5018311;28;20057;-58
2021/04/14 04:03:56;;;;;;;38.03;19.05;;;;;;;-4.11;94.71;97653.22;5028981;28;20061;-60
2021/04/14 04:06:22;;;;;;;36.92;19.08;;;;;;;-3.91;94.95;97646.50;5017523;28;20048;-60
2021/04/14 04:08:49;;;;;;;44.42;20.05;;;;;;;-3.73;95.11;97646.19;5030413;28;20049;-61
2021/04/14 04:11:16;;;;;;;37.70;19.33;;;;;;;-3.59;94.56;97649.28;5015329;28;20049;-61
2021/04/14 04:13:42;;;;;;;39.08;19.05;;;;;;;-3.46;94.45;97640.03;5027379;28;20041;-58
2021/04/14 04:16:08;;;;;;;38.38;19.10;;;;;;;-3.34;93.71;97638.00;5026821;28;20041;-61
2021/04/14 04:18:35;;;;;;;38.83;18.80;;;;;;;-3.27;93.54;97632.47;5039439;28;20048;-60
2021/04/14 04:21:01;;;;;;;36.65;18.95;;;;;;;-3.24;92.93;97631.13;5020089;28;20064;-62
2021/04/14 04:23:27;;;;;;;38.95;17.38;;;;;;;-3.20;92.65;97641.09;5016881;28;20114;-59
2021/04/14 04:25:52;;;;;;;32.00;16.80;;;;;;;-3.25;91.99;97632.22;5020453;28;20077;-59
2021/04/14 04:28:19;;;;;;;36.05;18.70;;;;;;;-3.15;91.94;97632.28;5022175;28;20045;-60
2021/04/14 04:30:44;;;;;;;29.95;16.80;;;;;;;-3.14;91.46;97634.72;5030240;28;20045;-59
2021/04/14 04:33:10;;;;;;;33.03;16.42;;;;;;;-3.22;91.44;97639.72;5023016;28;20107;-58
2021/04/14 04:35:35;;;;;;;32.78;15.90;;;;;;;-3.33;91.05;97630.78;5034271;28;20068;-61
2021/04/14 04:38:02;;;;;;;23.15;12.27;;;;;;;-3.32;90.31;97637.75;5041130;28;20049;-61
2021/04/14 04:40:28;;;;;;;20.80;11.73;;;;;;;-3.03;85.76;97634.78;5038787;28;20128;-61
2021/04/14 04:42:54;;;;;;;20.33;11.18;;;;;;;-3.08;85.32;97639.06;5043532;28;20480;-60
2021/04/14 04:45:22;;;;;;;20.48;10.80;;;;;;;-2.87;83.42;97633.84;5032855;28;20045;-60
2021/04/14 04:47:48;;;;;;;17.13;8.95;;;;;;;-2.73;82.11;97626.19;5040547;28;20040;-60
2021/04/14 04:50:15;;;;;;;15.90;9.52;;;;;;;-2.47;80.00;97635.19;5031162;28;20079;-61
2021/04/14 04:52:41;;;;;;;17.20;8.23;;;;;;;-2.36;79.24;97630.69;5043103;28;20041;-60
2021/04/14 04:55:07;;;;;;;14.45;8.23;;;;;;;-1.99;77.03;97629.81;5038866;28;20049;-59
2021/04/14 04:57:32;;;;;;;13.63;7.47;;;;;;;-1.95;77.28;97630.88;5042510;28;20055;-61
2021/04/14 04:59:58;;;;;;;13.18;7.60;;;;;;;-1.77;76.58;97630.41;5033844;28;20041;-60
2021/04/14 05:02:23;;;;;;;17.48;7.60;;;;;;;-1.60;75.47;97624.84;5031625;28;20748;-60
2021/04/14 05:04:49;;;;;;;13.25;8.18;;;;;;;-1.58;75.42;97635.31;5046267;28;20131;-58
2021/04/14 05:07:14;;;;;;;12.60;7.47;;;;;;;-1.58;75.28;97632.63;5043986;28;20135;-59
2021/04/14 05:09:40;;;;;;;16.33;9.45;;;;;;;-1.52;75.50;97628.88;5041018;28;20144;-60
2021/04/14 05:12:06;;;;;;;11.68;8.18;;;;;;;-1.32;74.62;97638.84;5043004;28;20072;-60
2021/04/14 05:14:31;;;;;;;11.18;7.60;;;;;;;-1.00;73.57;97630.53;5040051;28;20164;-59
2021/04/14 05:16:57;;;;;;;13.30;7.70;;;;;;;-0.68;72.35;97631.34;5042998;28;20436;-62
2021/04/14 05:19:22;;;;;;;13.07;7.63;;;;;;;-0.60;71.22;97642.34;5030680;28;20133;-58
2021/04/14 05:21:48;;;;;;;11.35;7.35;;;;;;;-0.40;71.77;97635.34;5041054;28;20044;-59
2021/04/14 05:24:13;;;;;;;14.90;7.75;;;;;;;-0.36;71.09;97639.13;5039185;28;20064;-61
2021/04/14 05:26:39;;;;;;;15.18;7.05;;;;;;;-0.11;70.03;97630.16;5040952;28;20055;-61
2021/04/14 05:29:05;;;;;;;17.45;7.53;;;;;;;0.05;70.19;97641.66;5033667;28;20043;-58
2021/04/14 05:31:32;;;;;;;17.05;10.10;;;;;;;0.42;69.51;97634.25;5041378;28;20045;-60
2021/04/14 05:33:59;;;;;;;15.82;9.00;;;;;;;0.48;68.73;97641.22;5040717;28;20041;-60
2021/04/14 05:36:25;;;;;;;12.00;6.30;;;;;;;0.53;67.49;97635.81;5039431;28;20523;-59
2021/04/14 05:38:51;;;;;;;23.17;8.95;;;;;;;0.80;67.92;97637.25;5032913;28;20060;-59
2021/04/14 05:41:18;;;;;;;21.65;12.07;;;;;;;0.99;66.33;97640.91;5037927;28;20080;-60
2021/04/14 05:43:44;;;;;;;14.65;7.47;;;;;;;1.18;65.52;97638.31;5025684;28;20091;-61
2021/04/14 05:46:13;;;;;;;13.93;7.47;;;;;;;1.30;65.00;97633.34;5018968;28;20136;-59
2021/04/14 05:48:41;;;;;;;15.70;8.27;;;;;;;1.77;63.06;97641.81;5034212;28;20041;-60
2021/04/14 05:51:08;;;;;;;12.60;6.07;;;;;;;2.24;61.45;97644.81;5026348;28;20041;-59
2021/04/14 05:53:36;;;;;;;10.40;6.43;;;;;;;2.26;60.08;97640.72;5037473;28;20110;-59
2021/04/14 05:56:03;;;;;;;14.85;6.28;;;;;;;2.21;62.09;97646.19;5022845;28;20045;-60
2021/04/14 05:58:29;;;;;;;15.07;7.60;;;;;;;1.92;63.74;97647.06;5035545;28;20048;-58
2021/04/14 06:00:54;;;;;;;10.65;6.10;;;;;;;2.10;62.03;97650.09;5042136;28;20045;-61
2021/04/14 06:03:22;;;;;;;11.35;6.20;;;;;;;2.15;62.91;97652.75;5037388;28;20060;-59
2021/04/14 06:05:51;;;;;;;10.73;6.07;;;;;;;2.30;62.03;97651.75;5045532;28;20473;-61
2021/04/14 06:08:16;;;;;;;13.70;6.78;;;;;;;2.21;61.32;97643.47;5032390;28;20049;-59
2021/04/14 06:10:42;;;;;;;12.70;6.70;;;;;;;2.78;60.17;97648.97;5038643;28;20409;-60
2021/04/14 06:13:07;;;;;;;12.68;7.72;;;;;;;2.38;61.24;97640.31;5023332;28;20049;-57
2021/04/14 06:15:34;;;;;;;12.80;7.20;;;;;;;2.27;61.60;97649.66;5037748;28;20048;-58
2021/04/14 06:18:01;;;;;;;9.57;6.35;;;;;;;2.03;62.65;97649.66;5046585;28;20048;-59
2021/04/14 06:20:28;;;;;;;11.85;6.57;;;;;;;2.17;60.99;97639.75;5050099;28;20104;-60
2021/04/14 06:22:57;;;;;;;10.82;5.70;;;;;;;2.22;61.65;97650.50;5033907;28;20041;-59
2021/04/14 06:25:23;;;;;;;10.13;6.23;;;;;;;2.71;60.44;97651.22;5036239;28;20246;-57
2021/04/14 06:27:57;;;;;;;11.35;6.78;;;;;;;2.86;60.75;97650.19;5043043;28;20040;-59
2021/04/14 06:30:23;;;;;;;10.70;6.07;;;;;;;2.73;61.46;97654.44;5036967;28;20060;-59
2021/04/14 06:32:49;;;;;;;16.52;7.00;;;;;;;2.80;60.18;97656.78;5037938;28;20377;-56
2021/04/14 06:35:16;;;;;;;10.48;6.20;;;;;;;2.73;59.61;97653.66;5027470;28;20037;-58
2021/04/14 06:37:43;;;;;;;16.92;9.77;;;;;;;2.56;61.91;97652.25;5030509;28;20045;-61
2021/04/14 06:43:11;;;;;;;12.98;7.25;;;;;;;3.08;60.14;97655.03;5032324;28;20140;-56
2021/04/14 06:45:57;;;;;;;15.57;6.80;;;;;;;2.89;60.88;97662.34;5021266;28;20126;-56
2021/04/14 06:48:44;;;;;;;13.05;6.72;;;;;;;3.05;58.64;97650.19;5017329;28;20534;-59
2021/04/14 06:51:29;;;;;;;12.25;6.25;;;;;;;3.30;59.16;97650.91;5016184;28;20038;-60
2021/04/14 06:54:10;;;;;;;15.45;6.90;;;;;;;3.46;58.16;97646.84;5014915;28;20052;-61
2021/04/14 06:56:39;;;;;;;13.05;7.40;;;;;;;3.85;56.27;97652.94;5033762;28;20106;-61
2021/04/14 06:59:14;;;;;;;12.38;6.30;;;;;;;5.14;53.44;97643.72;5030778;28;20048;-59
2021/04/14 07:01:46;;;;;;;7.28;5.13;;;;;;;4.93;53.30;97643.38;5021185;28;20053;-61
2021/04/14 07:04:20;;;;;;;11.38;6.28;;;;;;;5.27;53.95;97642.06;5035940;28;20049;-59
2021/04/14 07:06:48;;;;;;;10.63;5.38;;;;;;;4.48;54.80;97646.00;5030237;28;20045;-60
2021/04/14 07:09:22;;;;;;;10.57;5.65;;;;;;;4.43;54.12;97635.25;5028954;28;20232;-60
2021/04/14 07:11:47;;;;;;;10.07;5.28;;;;;;;5.21;53.19;97644.09;5030191;28;20041;-60
2021/04/14 07:14:16;;;;;;;13.50;6.53;;;;;;;3.97;55.33;97642.41;5030360;28;20048;-60
2021/04/14 07:17:05;;;;;;;8.25;5.35;;;;;;;4.18;55.48;97642.81;5027394;28;20076;-60
2021/04/14 07:19:48;;;;;;;8.47;5.33;;;;;;;4.87;52.53;97645.41;5035695;28;20037;-60
2021/04/14 07:22:19;;;;;;;11.43;5.85;;;;;;;4.58;53.13;97643.06;5023531;28;20048;-60
2021/04/14 07:24:51;;;;;;;9.63;5.03;;;;;;;4.16;54.54;97647.72;5020854;28;20397;-61
2021/04/14 07:27:20;;;;;;;7.18;4.55;;;;;;;4.64;54.13;97641.06;5023871;28;20053;-57
2021/04/14 07:29:51;;;;;;;11.98;5.43;;;;;;;6.50;49.44;97636.91;5028192;28;20081;-60
2021/04/14 07:32:21;;;;;;;11.25;4.63;;;;;;;5.58;50.13;97628.50;5027765;28;20477;-61
2021/04/14 07:35:11;;;;;;;8.60;5.10;;;;;;;5.16;52.21;97631.44;5025490;28;20488;-60
2021/04/14 07:37:56;;;;;;;10.50;4.72;;;;;;;4.77;53.80;97642.91;5024560;28;20672;-59
2021/04/14 07:40:53;;;;;;;10.23;5.95;;;;;;;4.58;51.59;97635.72;5029368;28;21635;-59
2021/04/14 07:43:28;;;;;;;11.18;6.60;;;;;;;4.96;51.83;97632.72;5025391;28;20048;-60
2021/04/14 07:45:53;;;;;;;8.77;5.85;;;;;;;5.35;49.94;97627.75;5030674;28;20171;-60
2021/04/14 07:48:29;;;;;;;7.22;4.35;;;;;;;6.08;51.79;97625.56;5034312;28;20398;-61
2021/04/14 07:50:59;;;;;;;10.20;5.68;;;;;;;6.37;47.56;97624.22;5038925;28;20045;-60
2021/04/14 07:53:27;;;;;;;7.75;4.38;;;;;;;6.96;47.37;97623.81;5031122;28;20233;-60
2021/04/14 07:56:03;;;;;;;8.18;4.20;;;;;;;5.58;51.08;97616.84;5036445;28;20048;-55
2021/04/14 07:58:28;;;;;;;12.48;5.88;;;;;;;5.76;48.81;97618.53;5045080;28;20053;-60
2021/04/14 08:00:54;;;;;;;9.82;4.60;;;;;;;5.75;48.07;97612.28;5027653;28;20516;-59
2021/04/14 08:03:30;;;;;;;9.80;5.75;;;;;;;5.75;49.52;97616.94;5016375;28;20045;-59
2021/04/14 08:06:34;;;;;;;8.50;5.45;;;;;;;6.58;49.03;97613.53;5033290;28;20049;-60
2021/04/14 08:09:20;;;;;;;11.65;5.60;;;;;;;7.02;46.69;97613.56;5031529;28;20041;-58
2021/04/14 08:11:47;;;;;;;9.07;4.03;;;;;;;7.32;45.64;97608.28;5047950;28;20041;-60
2021/04/14 08:14:30;;;;;;;9.13;3.78;;;;;;;6.31;44.79;97622.78;5033266;28;20075;-59
2021/04/14 08:16:55;;;;;;;11.02;5.38;;;;;;;5.67;47.70;97614.97;5028901;28;20041;-60
2021/04/14 08:19:29;;;;;;;7.03;3.72;;;;;;;5.71;47.21;97605.09;5023755;28;20175;-59
2021/04/14 08:22:15;;;;;;;9.00;5.25;;;;;;;5.58;48.36;97609.47;5024694;28;20071;-60
2021/04/14 08:24:55;;;;;;;7.38;4.63;;;;;;;5.26;48.21;97608.66;5025079;28;20224;-59
2021/04/14 08:27:29;;;;;;;7.65;4.57;;;;;;;5.20;48.11;97607.16;5031425;28;20045;-58
2021/04/14 08:30:07;;;;;;;8.60;4.13;;;;;;;5.85;47.77;97588.66;5027580;28;20045;-60
2021/04/14 08:32:44;;;;;;;7.13;4.13;;;;;;;5.85;49.47;97594.94;5055650;28;20056;-60
2021/04/14 08:35:28;;;;;;;8.10;3.88;;;;;;;6.11;48.67;97597.75;5037003;28;20040;-60
2021/04/14 08:38:07;;;;;;;10.60;5.10;;;;;;;5.73;50.53;97586.56;5040084;28;20163;-61
2021/04/14 08:40:54;;;;;;;8.00;4.00;;;;;;;6.12;49.21;97595.81;5038189;28;20044;-60
2021/04/14 08:43:31;;;;;;;7.97;4.30;;;;;;;5.80;49.74;97595.06;5046786;28;20053;-61
2021/04/14 08:46:29;;;;;;;8.02;4.28;;;;;;;5.85;49.65;97589.50;5042503;28;20037;-59
2021/04/14 08:49:02;;;;;;;10.85;4.25;;;;;;;5.60;49.03;97576.56;5026521;28;20445;-60
2021/04/14 08:51:33;;;;;;;6.60;3.20;;;;;;;6.51;45.94;97589.50;5030893;28;20040;-59
2021/04/14 08:53:59;;;;;;;6.93;3.45;;;;;;;7.97;43.60;97584.50;5042763;28;20040;-59
2021/04/14 08:56:26;;;;;;;6.75;3.53;;;;;;;5.84;46.09;97582.44;5037478;28;20695;-57
2021/04/14 08:58:56;;;;;;;5.80;3.63;;;;;;;5.48;45.32;97591.53;5037137;28;20049;-59
2021/04/14 09:01:23;;;;;;;12.23;3.65;;;;;;;5.79;45.07;97576.34;5023656;28;20116;-60
2021/04/14 09:03:49;;;;;;;5.93;2.60;;;;;;;5.32;42.60;97571.31;5035557;28;20049;-60
2021/04/14 09:06:17;;;;;;;4.55;2.40;;;;;;;5.18;43.23;97595.81;5029269;28;20042;-61
2021/04/14 09:08:47;;;;;;;4.15;2.20;;;;;;;5.27;41.74;97582.31;5028771;28;20073;-61
2021/04/14 09:11:22;;;;;;;4.63;2.22;;;;;;;5.29;42.63;97571.94;5021977;28;20494;-59
2021/04/14 09:13:54;;;;;;;6.47;2.30;;;;;;;5.81;40.93;97574.91;5024076;28;20510;-60
2021/04/14 09:16:34;;;;;;;7.10;2.10;;;;;;;6.15;39.05;97578.09;5024516;28;20039;-60
2021/04/14 09:19:14;;;;;;;6.63;2.50;;;;;;;5.59;41.28;97574.97;5027166;28;20095;-60
2021/04/14 09:22:01;;;;;;;5.70;2.80;;;;;;;5.14;42.56;97562.25;5030595;28;20053;-60
2021/04/14 09:24:29;;;;;;;8.35;2.92;;;;;;;5.66;41.48;97576.13;5018446;28;20057;-60
2021/04/14 09:26:57;;;;;;;5.53;3.08;;;;;;;5.72;42.41;97558.53;5032761;28;20481;-58
2021/04/14 09:29:28;;;;;;;5.15;2.30;;;;;;;6.46;39.11;97559.75;5037928;28;20505;-59
2021/04/14 09:31:56;;;;;;;4.55;2.40;;;;;;;5.83;39.78;97555.56;5038501;28;20036;-59
2021/04/14 09:34:22;;;;;;;4.78;2.83;;;;;;;6.48;41.70;97565.69;5023205;28;21221;-59
2021/04/14 09:37:19;;;;;;;3.60;2.47;;;;;;;7.33;40.43;97563.53;5040290;28;20040;-58
2021/04/14 09:40:04;;;;;;;5.22;2.65;;;;;;;7.76;38.25;97566.16;5007744;28;20077;-59
2021/04/14 09:42:33;;;;;;;3.90;2.45;;;;;;;7.47;39.54;97558.69;5022457;28;20050;-60
2021/04/14 09:45:13;;;;;;;5.15;2.38;;;;;;;7.94;40.44;97544.22;5025422;28;20433;-63
2021/04/14 09:47:39;;;;;;;7.00;3.00;;;;;;;6.67;39.72;97546.31;5036308;28;20393;-59
2021/04/14 09:50:23;;;;;;;5.82;3.53;;;;;;;7.31;39.57;97547.53;5024789;28;20044;-61
2021/04/14 09:52:53;;;;;;;22.95;11.40;;;;;;;6.33;40.19;97547.06;5032071;28;20064;-60
2021/04/14 09:55:23;;;;;;;8.27;3.08;;;;;;;6.85;39.06;97544.38;5037338;28;20071;-58
2021/04/14 09:57:50;;;;;;;4.85;2.35;;;;;;;6.61;36.22;97544.88;5042765;28;20053;-61
2021/04/14 10:00:20;;;;;;;7.47;2.58;;;;;;;6.65;39.58;97534.13;5037300;28;20061;-61
2021/04/14 10:02:47;;;;;;;4.13;2.42;;;;;;;6.92;39.84;97554.78;5042491;28;20045;-60
2021/04/14 10:05:16;;;;;;;6.38;3.30;;;;;;;7.01;36.54;97535.72;5036431;28;20119;-60
2021/04/14 10:07:44;;;;;;;7.63;2.47;;;;;;;7.50;36.33;97528.06;5041956;28;20037;-60
2021/04/14 10:10:20;;;;;;;3.88;2.08;;;;;;;7.59;38.62;97539.72;5017000;28;20099;-61
2021/04/14 10:12:47;;;;;;;4.45;2.45;;;;;;;7.87;39.47;97541.22;5022854;28;20065;-60
2021/04/14 10:15:13;;;;;;;5.40;2.65;;;;;;;6.66;36.32;97524.84;5021707;28;20044;-59
2021/04/14 10:17:39;;;;;;;4.57;2.90;;;;;;;6.22;37.64;97532.19;5025982;28;20046;-59
2021/04/14 10:20:20;;;;;;;5.85;2.60;;;;;;;6.29;37.79;97544.19;5034787;28;20102;-61
2021/04/14 10:22:48;;;;;;;3.85;2.05;;;;;;;7.16;36.90;97534.41;5032247;28;20140;-59
2021/04/14 10:25:27;;;;;;;5.15;2.80;;;;;;;6.85;37.83;97524.53;5027857;28;20087;-60
2021/04/14 10:28:02;;;;;;;5.85;2.45;;;;;;;7.50;34.12;97530.00;5022105;28;20386;-59
2021/04/14 10:30:30;;;;;;;7.53;2.88;;;;;;;7.25;34.97;97507.94;5033514;28;20087;-60
2021/04/14 10:33:05;;;;;;;6.55;2.92;;;;;;;7.49;36.70;97523.75;5038403;28;20041;-59
2021/04/14 10:35:31;;;;;;;6.82;2.60;;;;;;;7.65;38.11;97516.63;5043062;28;20050;-60
2021/04/14 10:37:56;;;;;;;6.18;2.88;;;;;;;7.69;38.56;97518.69;5031178;28;20069;-61
2021/04/14 10:40:30;;;;;;;6.35;2.70;;;;;;;8.38;35.63;97501.13;5030133;28;20055;-59
2021/04/14 10:42:57;;;;;;;4.68;2.45;;;;;;;8.45;34.79;97506.09;5021374;28;20034;-59
2021/04/14 10:45:25;;;;;;;6.85;3.45;;;;;;;8.86;35.90;97513.44;5016853;28;20247;-57
2021/04/14 10:47:56;;;;;;;5.78;2.33;;;;;;;10.03;34.27;97511.47;5025047;28;20371;-63
2021/04/14 10:50:30;;;;;;;5.82;2.47;;;;;;;6.74;37.03;97496.03;5024994;28;20057;-60
2021/04/14 10:53:10;;;;;;;8.40;3.22;;;;;;;6.91;38.74;97503.38;5040418;28;20045;-62
2021/04/14 10:55:48;;;;;;;3.85;2.45;;;;;;;6.27;38.67;97513.00;5031774;28;20045;-62
2021/04/14 10:58:24;;;;;;;5.18;2.22;;;;;;;6.89;37.46;97504.47;5024594;28;20041;-61
2021/04/14 11:00:51;;;;;;;4.82;2.20;;;;;;;6.10;37.11;97495.53;5036938;28;20144;-64
2021/04/14 11:03:20;;;;;;;8.35;2.58;;;;;;;5.97;37.95;97493.72;5019426;28;20490;-63
2021/04/14 11:05:52;;;;;;;12.38;3.30;;;;;;;5.71;38.03;97488.22;5040969;28;20053;-63
2021/04/14 11:08:19;;;;;;;7.72;3.30;;;;;;;6.11;38.46;97497.13;5035763;28;20516;-63
2021/04/14 11:10:46;;;;;;;6.60;2.63;;;;;;;5.81;38.65;97482.47;5041223;28;20102;-60
2021/04/14 11:13:16;;;;;;;4.07;2.20;;;;;;;5.95;38.17;97485.06;5035472;28;20489;-62
2021/04/14 11:15:45;;;;;;;4.05;1.80;;;;;;;6.09;39.32;97487.69;5040824;28;20041;-61
2021/04/14 11:18:13;;;;;;;4.70;2.25;;;;;;;6.62;37.03;97461.28;5035766;28;20524;-62
2021/04/14 11:23:45;;;;;;;5.18;1.48;;;;;;;8.18;34.57;97473.47;5006159;28;20629;-62
2021/04/14 11:26:18;;;;;;;2.80;1.90;;;;;;;8.76;31.78;97468.22;5035255;28;20132;-61
2021/04/14 11:28:45;;;;;;;7.68;2.22;;;;;;;8.20;32.41;97456.78;5040747;28;20049;-61
2021/04/14 11:31:13;;;;;;;6.32;2.22;;;;;;;8.15;34.17;97465.16;5036313;28;20575;-62
2021/04/14 11:33:43;;;;;;;3.47;2.10;;;;;;;8.79;34.68;97451.16;5041191;28;20132;-61
2021/04/14 11:36:25;;;;;;;3.75;1.67;;;;;;;8.05;33.99;97460.91;5030951;28;20041;-61
2021/04/14 11:39:04;;;;;;;5.25;2.72;;;;;;;7.39;36.31;97467.66;5022535;28;20202;-62
2021/04/14 11:41:37;;;;;;;5.20;1.80;;;;;;;6.72;37.48;97471.84;5022496;28;20045;-62
2021/04/14 11:44:16;;;;;;;6.45;2.28;;;;;;;7.07;38.68;97466.31;5033847;28;20100;-59
2021/04/14 11:46:42;;;;;;;4.65;2.00;;;;;;;6.89;37.67;97466.34;5024433;28;20037;-60